createdAt,value
2022-12-13T00:02:00.027Z,100.00
2022-12-13T00:04:28.577Z,100.00
2022-12-13T00:06:57.052Z,100.00
2022-12-13T00:09:27.058Z,100.00
2022-12-13T00:11:55.426Z,100.00
2022-12-13T00:14:23.723Z,100.00
2022-12-13T00:16:52.297Z,100.00
2022-12-13T00:19:21.357Z,100.00
2022-12-13T00:21:49.901Z,100.00
2022-12-13T00:24:18.266Z,100.00
2022-12-13T00:26:48.097Z,100.00
2022-12-13T00:29:17.320Z,100.00
2022-12-13T00:32:01.465Z,100.00
2022-12-13T00:34:30.613Z,100.00
2022-12-13T00:37:00.158Z,100.00
2022-12-13T00:39:29.408Z,100.00
2022-12-13T00:41:59.543Z,100.00
2022-12-13T00:44:28.132Z,100.00
2022-12-13T00:46:56.620Z,100.00
2022-12-13T00:49:25.675Z,100.00
2022-12-13T00:51:54.154Z,100.00
2022-12-13T00:54:22.669Z,100.00
2022-12-13T00:56:52.291Z,100.00
2022-12-13T00:59:22.548Z,100.00
2022-12-13T01:01:50.935Z,100.00
2022-12-13T01:04:19.324Z,100.00
2022-12-13T01:06:51.440Z,100.00
2022-12-13T01:09:23.222Z,100.00
2022-12-13T01:11:52.709Z,100.00
2022-12-13T01:14:22.521Z,100.00
2022-12-13T01:16:50.930Z,100.00
2022-12-13T01:19:19.338Z,100.00
2022-12-13T01:21:47.753Z,99.99
2022-12-13T01:24:20.622Z,100.00
2022-12-13T01:26:49.024Z,100.00
2022-12-13T01:29:17.462Z,100.00
2022-12-13T01:31:47.317Z,100.00
2022-12-13T01:34:18.738Z,100.00
2022-12-13T01:36:48.828Z,100.00
2022-12-13T01:39:20.823Z,100.00
2022-12-13T01:41:59.685Z,100.00
2022-12-13T01:45:06.241Z,99.95
2022-12-13T01:47:40.736Z,99.95
2022-12-13T01:50:13.702Z,100.00
2022-12-13T01:52:43.212Z,99.76
2022-12-13T01:55:13.633Z,99.58
2022-12-13T01:57:45.824Z,99.94
2022-12-13T02:00:17.113Z,99.22
2022-12-13T02:02:48.192Z,99.30
2022-12-13T02:05:24.458Z,99.38
2022-12-13T02:07:54.442Z,99.74
2022-12-13T02:10:22.980Z,99.72
2022-12-13T02:12:52.123Z,99.62
2022-12-13T02:15:21.437Z,99.37
2022-12-13T02:18:11.866Z,99.24
2022-12-13T02:21:04.554Z,99.39
2022-12-13T02:24:38.853Z,99.47
2022-12-13T02:27:30.549Z,99.52
2022-12-13T02:30:27.228Z,99.20
2022-12-13T02:33:21.315Z,99.11
2022-12-13T02:36:01.075Z,99.23
2022-12-13T02:38:38.078Z,99.33
2022-12-13T02:41:16.669Z,100.00
2022-12-13T02:43:50.883Z,100.00
2022-12-13T02:46:23.907Z,100.00
2022-12-13T02:48:56.276Z,100.00
2022-12-13T02:51:26.570Z,100.00
2022-12-13T02:53:55.007Z,96.53
2022-12-13T02:56:23.401Z,94.32
2022-12-13T02:58:55.616Z,92.25
2022-12-13T03:02:10.514Z,94.51
2022-12-13T03:05:06.872Z,95.66
2022-12-13T03:07:43.549Z,96.24
2022-12-13T03:10:20.244Z,96.50
2022-12-13T03:13:13.965Z,97.23
2022-12-13T03:15:48.963Z,96.94
2022-12-13T03:18:21.681Z,96.90
2022-12-13T03:20:55.328Z,96.67
2022-12-13T03:23:24.996Z,96.68
2022-12-13T03:25:57.298Z,96.96
2022-12-13T03:28:25.706Z,97.21
2022-12-13T03:30:54.019Z,97.74
2022-12-13T03:33:23.823Z,97.75
2022-12-13T03:35:52.457Z,97.31
2022-12-13T03:38:22.637Z,97.22
2022-12-13T03:40:55.521Z,97.21
2022-12-13T03:43:24.080Z,97.50
2022-12-13T03:45:52.817Z,97.03
2022-12-13T03:48:23.914Z,96.99
2022-12-13T03:50:54.711Z,96.59
2022-12-13T03:53:33.610Z,96.91
2022-12-13T03:56:05.123Z,97.61
2022-12-13T03:58:37.689Z,97.43
2022-12-13T04:01:08.151Z,97.23
2022-12-13T04:03:39.232Z,97.45
2022-12-13T04:06:08.827Z,97.53
2022-12-13T04:08:39.341Z,97.13
2022-12-13T04:11:22.601Z,97.44
2022-12-13T04:13:50.965Z,98.07
2022-12-13T04:16:19.452Z,98.01
2022-12-13T04:18:49.258Z,98.42
2022-12-13T04:21:17.661Z,98.93
2022-12-13T04:23:46.028Z,99.02
2022-12-13T04:26:14.545Z,98.78
2022-12-13T04:28:42.964Z,98.70
2022-12-13T04:31:11.364Z,99.71
2022-12-13T04:33:47.742Z,99.96
2022-12-13T04:36:31.818Z,100.00
2022-12-13T04:39:01.791Z,99.91
2022-12-13T04:41:34.512Z,100.00
2022-12-13T04:44:05.069Z,99.95
2022-12-13T04:46:33.544Z,100.00
2022-12-13T04:49:03.325Z,100.00
2022-12-13T04:51:31.716Z,100.00
2022-12-13T04:54:23.540Z,100.00
2022-12-13T04:56:48.936Z,100.00
2022-12-13T04:59:17.739Z,100.00
2022-12-13T05:01:46.136Z,100.00
2022-12-13T05:04:15.883Z,100.00
2022-12-13T05:06:44.282Z,100.00
2022-12-13T05:09:12.597Z,100.00
2022-12-13T05:11:45.414Z,100.00
2022-12-13T05:14:23.337Z,100.00
2022-12-13T05:16:53.269Z,100.00
2022-12-13T05:19:31.129Z,100.00
2022-12-13T05:22:01.273Z,100.00
2022-12-13T05:24:31.775Z,100.00
2022-12-13T05:27:01.095Z,100.00
2022-12-13T05:29:29.844Z,100.00
2022-12-13T05:31:58.417Z,100.00
2022-12-13T05:34:28.408Z,100.00
2022-12-13T05:36:57.074Z,100.00
2022-12-13T05:39:27.895Z,100.00
2022-12-13T05:42:01.438Z,100.00
2022-12-13T05:44:31.680Z,100.00
2022-12-13T05:47:02.394Z,100.00
2022-12-13T05:49:33.389Z,100.00
2022-12-13T05:52:01.927Z,100.00
2022-12-13T05:54:30.323Z,100.00
2022-12-13T05:56:58.664Z,100.00
2022-12-13T05:59:27.033Z,99.75
2022-12-13T06:01:55.475Z,99.91
2022-12-13T06:04:23.942Z,99.70
2022-12-13T06:06:54.042Z,99.46
2022-12-13T06:09:23.379Z,99.75
2022-12-13T06:11:51.946Z,99.73
2022-12-13T06:14:29.708Z,99.42
2022-12-13T06:16:58.316Z,99.16
2022-12-13T06:19:27.261Z,99.45
2022-12-13T06:21:57.591Z,99.21
2022-12-13T06:24:27.426Z,99.13
2022-12-13T06:26:55.783Z,98.75
2022-12-13T06:29:25.736Z,98.89
2022-12-13T06:32:01.024Z,99.10
2022-12-13T06:34:33.467Z,98.77
2022-12-13T06:37:06.977Z,98.61
2022-12-13T06:39:36.312Z,98.86
2022-12-13T06:42:07.161Z,98.54
2022-12-13T06:44:37.495Z,98.12
2022-12-13T06:47:10.311Z,98.21
2022-12-13T06:49:43.146Z,98.64
2022-12-13T06:52:15.104Z,98.96
2022-12-13T06:54:44.558Z,98.57
2022-12-13T06:57:14.017Z,98.86
2022-12-13T06:59:42.895Z,98.48
2022-12-13T07:02:24.705Z,98.31
2022-12-13T07:04:56.238Z,98.48
2022-12-13T07:07:27.069Z,98.20
2022-12-13T07:09:55.697Z,98.00
2022-12-13T07:12:24.252Z,98.30
2022-12-13T07:14:55.074Z,98.30
2022-12-13T07:17:31.892Z,97.98
2022-12-13T07:20:02.352Z,98.12
2022-12-13T07:22:34.826Z,97.93
2022-12-13T07:25:06.016Z,97.49
2022-12-13T07:27:35.376Z,97.59
2022-12-13T07:30:04.210Z,97.41
2022-12-13T07:32:32.629Z,97.11
2022-12-13T07:35:01.159Z,97.08
2022-12-13T07:37:31.327Z,96.78
2022-12-13T07:40:04.390Z,97.38
2022-12-13T07:42:33.788Z,97.24
2022-12-13T07:45:02.206Z,97.58
2022-12-13T07:47:31.963Z,97.08
2022-12-13T07:50:01.509Z,96.99
2022-12-13T07:52:31.591Z,96.83
2022-12-13T07:55:00.096Z,96.69
2022-12-13T07:57:30.013Z,96.15
2022-12-13T07:59:58.430Z,96.13
2022-12-13T08:02:27.017Z,96.99
2022-12-13T08:04:55.636Z,96.97
2022-12-13T08:07:24.213Z,97.09
2022-12-13T08:09:55.370Z,97.01
2022-12-13T08:12:24.158Z,96.87
2022-12-13T08:14:53.216Z,96.91
2022-12-13T08:17:23.251Z,96.32
2022-12-13T08:19:51.680Z,95.96
2022-12-13T08:22:23.730Z,95.64
2022-12-13T08:24:54.251Z,95.72
2022-12-13T08:27:22.660Z,96.24
2022-12-13T08:29:51.190Z,95.89
2022-12-13T08:32:19.697Z,96.02
2022-12-13T08:34:48.182Z,95.53
2022-12-13T08:37:16.741Z,95.01
2022-12-13T08:39:45.741Z,95.09
2022-12-13T08:42:19.353Z,95.08
2022-12-13T08:44:50.559Z,95.13
2022-12-13T08:47:24.354Z,94.94
2022-12-13T08:50:02.267Z,95.06
2022-12-13T08:52:39.801Z,94.67
2022-12-13T08:55:10.963Z,94.36
2022-12-13T08:57:41.931Z,94.25
2022-12-13T09:00:14.125Z,94.01
2022-12-13T09:02:42.669Z,94.46
2022-12-13T09:05:12.946Z,95.25
2022-12-13T09:07:43.017Z,94.91
2022-12-13T09:10:27.144Z,93.96
2022-12-13T09:13:00.993Z,94.84
2022-12-13T09:15:34.064Z,94.13
2022-12-13T09:18:04.420Z,93.09
2022-12-13T09:20:40.776Z,93.28
2022-12-13T09:23:14.299Z,92.86
2022-12-13T09:26:05.524Z,92.93
2022-12-13T09:28:38.199Z,92.96
2022-12-13T09:31:09.928Z,92.96
2022-12-13T09:33:41.409Z,92.43
2022-12-13T09:36:14.275Z,92.62
2022-12-13T09:38:43.100Z,92.67
2022-12-13T09:41:20.400Z,92.29
2022-12-13T09:44:03.249Z,91.75
2022-12-13T09:46:44.323Z,92.06
2022-12-13T09:49:23.168Z,91.67
2022-12-13T09:52:10.840Z,91.76
2022-12-13T09:54:48.171Z,91.59
2022-12-13T09:57:31.150Z,91.05
2022-12-13T10:00:07.894Z,91.33
2022-12-13T10:02:45.635Z,91.13
2022-12-13T10:05:33.630Z,90.85
2022-12-13T10:08:09.812Z,90.22
2022-12-13T10:10:38.255Z,90.02
2022-12-13T10:13:17.934Z,90.33
2022-12-13T10:15:52.101Z,90.39
2022-12-13T10:18:34.880Z,90.47
2022-12-13T10:21:06.525Z,90.30
2022-12-13T10:23:59.351Z,89.80
2022-12-13T10:26:25.030Z,89.40
2022-12-13T10:29:04.799Z,88.82
2022-12-13T10:31:42.560Z,89.50
2022-12-13T10:34:24.471Z,89.80
2022-12-13T10:36:53.401Z,89.37
2022-12-13T10:39:40.725Z,89.26
2022-12-13T10:42:22.740Z,87.67
2022-12-13T10:45:14.708Z,86.66
2022-12-13T10:47:46.337Z,85.98
2022-12-13T10:50:26.570Z,86.52
2022-12-13T10:52:57.440Z,85.48
2022-12-13T10:55:30.295Z,85.41
2022-12-13T10:58:01.584Z,85.55
2022-12-13T11:00:42.141Z,83.41
2022-12-13T11:03:31.094Z,80.61
2022-12-13T11:06:06.411Z,78.17
2022-12-13T11:08:35.215Z,75.06
2022-12-13T11:11:05.804Z,73.93
2022-12-13T11:13:40.157Z,71.83
2022-12-13T11:16:24.546Z,71.51
2022-12-13T11:18:58.262Z,70.02
2022-12-13T11:21:29.118Z,67.93
2022-12-13T11:24:01.562Z,67.49
2022-12-13T11:26:32.693Z,67.33
2022-12-13T11:29:33.398Z,67.18
2022-12-13T11:32:11.094Z,68.15
2022-12-13T11:34:50.435Z,68.92
2022-12-13T11:37:27.863Z,69.56
2022-12-13T11:40:02.072Z,68.66
2022-12-13T11:42:38.478Z,73.96
2022-12-13T11:45:22.323Z,73.36
2022-12-13T11:48:04.769Z,73.31
2022-12-13T11:50:38.971Z,70.78
2022-12-13T11:53:24.431Z,70.81
2022-12-13T11:55:58.687Z,75.75
2022-12-13T12:01:27.726Z,64.59
2022-12-13T12:04:02.218Z,66.43
2022-12-13T12:06:40.437Z,66.92
2022-12-13T12:09:16.242Z,66.01
2022-12-13T12:11:52.920Z,66.60
2022-12-13T12:14:26.201Z,68.36
2022-12-13T12:16:57.045Z,67.47
2022-12-13T12:19:31.801Z,65.47
2022-12-13T12:22:18.919Z,65.99
2022-12-13T12:25:19.207Z,70.05
2022-12-13T12:27:57.034Z,68.44
2022-12-13T12:30:28.858Z,66.88
2022-12-13T12:33:07.386Z,68.17
2022-12-13T12:36:05.328Z,68.59
2022-12-13T12:39:27.809Z,70.55
2022-12-13T12:42:21.423Z,72.24
2022-12-13T12:45:10.451Z,73.50
2022-12-13T12:48:43.910Z,72.38
2022-12-13T12:50:46.272Z,73.89
2022-12-13T12:53:36.641Z,74.70
2022-12-13T12:56:23.078Z,74.94
2022-12-13T12:58:59.461Z,76.28
2022-12-13T13:01:48.408Z,74.58
2022-12-13T13:04:22.550Z,74.35
2022-12-13T13:07:01.863Z,75.55
2022-12-13T13:09:32.495Z,75.43
2022-12-13T13:12:28.807Z,74.63
2022-12-13T13:14:54.104Z,74.98
2022-12-13T13:17:49.436Z,75.20
2022-12-13T13:20:23.405Z,76.00
2022-12-13T13:23:10.263Z,77.98
2022-12-13T13:28:45.994Z,76.18
2022-12-13T13:31:14.453Z,75.52
2022-12-13T13:33:51.144Z,75.81
2022-12-13T13:36:57.115Z,75.66
2022-12-13T13:39:58.806Z,76.56
2022-12-13T13:42:28.915Z,77.39
2022-12-13T13:45:21.504Z,75.35
2022-12-13T13:48:14.288Z,75.24
2022-12-13T13:55:16.354Z,78.19
2022-12-13T13:58:53.892Z,77.22
2022-12-13T14:02:01.359Z,76.22
2022-12-13T14:05:30.610Z,78.17
2022-12-13T14:08:22.693Z,79.37
2022-12-13T14:11:18.254Z,81.84
2022-12-13T14:14:42.896Z,82.88
2022-12-13T14:18:25.863Z,83.71
2022-12-13T14:21:16.815Z,85.06
2022-12-13T14:23:59.350Z,85.36
2022-12-13T14:26:55.381Z,85.73
2022-12-13T14:29:29.552Z,86.19
2022-12-13T14:31:58.954Z,86.54
2022-12-13T14:34:31.836Z,86.79
2022-12-13T14:37:02.917Z,87.01
2022-12-13T14:39:34.710Z,87.57
2022-12-13T14:42:22.716Z,86.96
2022-12-13T14:44:51.284Z,87.45
2022-12-13T14:47:21.380Z,87.77
2022-12-13T14:49:55.944Z,87.66
2022-12-13T14:52:28.038Z,87.49
2022-12-13T14:54:59.627Z,87.82
2022-12-13T14:57:30.882Z,87.70
2022-12-13T15:00:01.389Z,88.01
2022-12-13T15:02:32.609Z,88.33
2022-12-13T15:05:05.592Z,88.37
2022-12-13T15:07:38.156Z,88.24
2022-12-13T15:10:22.245Z,88.38
2022-12-13T15:12:52.184Z,88.33
2022-12-13T15:15:28.593Z,88.34
2022-12-13T15:18:08.905Z,88.94
2022-12-13T15:20:43.112Z,89.22
2022-12-13T15:23:26.037Z,89.12
2022-12-13T15:26:28.304Z,89.03
2022-12-13T15:29:00.937Z,88.80
2022-12-13T15:31:30.175Z,89.13
2022-12-13T15:34:28.498Z,89.04
2022-12-13T15:37:02.677Z,89.42
2022-12-13T15:39:32.182Z,89.13
2022-12-13T15:42:01.200Z,89.86
2022-12-13T15:44:32.868Z,90.36
2022-12-13T15:47:05.743Z,90.93
2022-12-13T15:49:38.229Z,90.24
2022-12-13T15:52:28.710Z,89.04
2022-12-13T15:54:59.462Z,87.84
2022-12-13T15:57:30.049Z,88.23
2022-12-13T16:00:29.276Z,88.07
2022-12-13T16:03:09.293Z,87.78
2022-12-13T16:05:42.396Z,85.67
2022-12-13T16:08:29.498Z,84.72
2022-12-13T16:10:59.060Z,85.30
2022-12-13T16:13:30.756Z,84.87
2022-12-13T16:16:08.813Z,84.12
2022-12-13T16:18:46.769Z,84.13
2022-12-13T16:21:15.565Z,84.45
2022-12-13T16:23:48.745Z,84.46
2022-12-13T16:26:25.482Z,84.32
2022-12-13T16:28:54.370Z,84.35
2022-12-13T16:31:25.031Z,84.46
2022-12-13T16:33:53.517Z,83.75
2022-12-13T16:36:21.972Z,83.69
2022-12-13T16:38:52.491Z,83.96
2022-12-13T16:41:22.075Z,83.73
2022-12-13T16:43:56.878Z,83.01
2022-12-13T16:47:16.681Z,82.96
2022-12-13T16:49:21.875Z,82.47
2022-12-13T16:51:50.665Z,82.09
2022-12-13T16:54:22.699Z,82.28
2022-12-13T16:56:52.398Z,82.47
2022-12-13T16:59:23.887Z,82.54
2022-12-13T17:01:53.137Z,82.13
2022-12-13T17:04:24.359Z,82.36
2022-12-13T17:06:54.997Z,81.79
2022-12-13T17:09:25.700Z,82.16
2022-12-13T17:11:54.101Z,81.86
2022-12-13T17:14:22.458Z,82.02
2022-12-13T17:16:51.623Z,82.32
2022-12-13T17:19:20.280Z,82.45
2022-12-13T17:21:49.557Z,82.41
2022-12-13T17:24:18.040Z,82.70
2022-12-13T17:26:54.477Z,82.61
2022-12-13T17:31:53.410Z,83.18
2022-12-13T17:34:21.853Z,83.25
2022-12-13T17:36:50.299Z,83.93
2022-12-13T17:39:18.952Z,84.02
2022-12-13T17:41:54.901Z,83.78
2022-12-13T17:44:25.057Z,83.79
2022-12-13T17:46:55.182Z,83.83
2022-12-13T17:49:24.767Z,83.59
2022-12-13T17:51:54.342Z,83.85
2022-12-13T17:54:24.740Z,83.85
2022-12-13T17:56:54.921Z,83.91
2022-12-13T17:59:23.527Z,83.89
2022-12-13T18:01:52.508Z,83.95
2022-12-13T18:04:21.946Z,84.26
2022-12-13T18:06:52.251Z,84.17
2022-12-13T18:09:20.644Z,84.08
2022-12-13T18:11:49.184Z,84.16
2022-12-13T18:14:18.943Z,84.06
2022-12-13T18:16:47.820Z,84.01
2022-12-13T18:19:16.481Z,84.16
2022-12-13T18:21:44.972Z,84.12
2022-12-13T18:24:13.774Z,84.20
2022-12-13T18:26:42.382Z,84.65
2022-12-13T18:29:10.768Z,84.61
2022-12-13T18:31:40.928Z,84.45
2022-12-13T18:34:10.158Z,84.30
2022-12-13T18:36:39.557Z,84.41
2022-12-13T18:39:07.963Z,84.40
2022-12-13T18:41:36.431Z,84.31
2022-12-13T18:44:07.946Z,84.52
2022-12-13T18:46:39.792Z,84.67
2022-12-13T18:49:12.980Z,84.57
2022-12-13T18:51:41.449Z,84.68
2022-12-13T18:54:10.078Z,84.81
2022-12-13T18:56:38.420Z,84.34
2022-12-13T18:59:06.848Z,84.58
2022-12-13T19:01:35.795Z,83.97
2022-12-13T19:04:04.414Z,84.10
2022-12-13T19:06:34.233Z,84.03
2022-12-13T19:09:02.686Z,84.21
2022-12-13T19:11:32.814Z,83.89
2022-12-13T19:14:01.233Z,84.15
2022-12-13T19:16:29.643Z,83.62
2022-12-13T19:18:59.497Z,83.66
2022-12-13T19:21:28.447Z,83.64
2022-12-13T19:24:01.196Z,83.89
2022-12-13T19:26:30.576Z,83.77
2022-12-13T19:29:00.115Z,83.82
2022-12-13T19:31:32.236Z,83.61
2022-12-13T19:34:02.806Z,83.67
2022-12-13T19:36:32.004Z,83.73
2022-12-13T19:39:01.884Z,83.85
2022-12-13T19:41:32.262Z,84.07
2022-12-13T19:44:04.573Z,83.96
2022-12-13T19:46:33.040Z,83.79
2022-12-13T19:49:01.525Z,83.33
2022-12-13T19:51:34.460Z,83.46
2022-12-13T19:54:07.557Z,83.64
2022-12-13T19:56:36.025Z,83.58
2022-12-13T19:59:05.238Z,83.57
2022-12-13T20:01:33.803Z,84.10
2022-12-13T20:04:02.608Z,84.23
2022-12-13T20:06:31.556Z,84.29
2022-12-13T20:09:01.417Z,84.19
2022-12-13T20:11:31.490Z,83.96
2022-12-13T20:13:59.919Z,83.70
2022-12-13T20:16:28.609Z,83.98
2022-12-13T20:18:58.333Z,83.81
2022-12-13T20:21:27.863Z,83.77
2022-12-13T20:23:56.492Z,83.72
2022-12-13T20:26:27.898Z,83.84
2022-12-13T20:28:58.329Z,83.93
2022-12-13T20:31:30.553Z,83.97
2022-12-13T20:34:02.264Z,84.21
2022-12-13T20:36:31.819Z,84.25
2022-12-13T20:39:02.424Z,84.20
2022-12-13T20:41:34.344Z,84.19
2022-12-13T20:44:07.826Z,84.07
2022-12-13T20:46:37.883Z,83.95
2022-12-13T20:49:08.607Z,84.09
2022-12-13T20:51:39.650Z,83.72
2022-12-13T20:54:08.316Z,83.87
2022-12-13T20:56:39.282Z,83.69
2022-12-13T20:59:12.853Z,83.88
2022-12-13T21:01:43.065Z,83.76
2022-12-13T21:04:12.796Z,83.44
2022-12-13T21:06:43.070Z,83.69
2022-12-13T21:09:13.105Z,83.76
2022-12-13T21:11:43.627Z,83.78
2022-12-13T21:14:21.406Z,83.79
2022-12-13T21:16:52.775Z,84.43
2022-12-13T21:19:24.243Z,84.49
2022-12-13T21:21:53.670Z,84.60
2022-12-13T21:24:24.660Z,84.66
2022-12-13T21:26:55.787Z,84.86
2022-12-13T21:29:25.851Z,85.22
2022-12-13T21:31:54.903Z,85.85
2022-12-13T21:34:24.139Z,85.63
2022-12-13T21:36:53.648Z,85.87
2022-12-13T21:39:24.527Z,86.11
2022-12-13T21:41:54.046Z,86.09
2022-12-13T21:44:22.934Z,86.16
2022-12-13T21:49:42.067Z,85.46
2022-12-13T21:52:18.092Z,85.11
2022-12-13T21:54:46.645Z,85.29
2022-12-13T21:57:32.410Z,84.91
2022-12-13T22:00:00.811Z,85.08
2022-12-13T22:02:30.650Z,84.25
2022-12-13T22:04:59.961Z,84.11
2022-12-13T22:07:30.935Z,84.20
2022-12-13T22:10:01.347Z,83.78
2022-12-13T22:12:35.330Z,84.15
2022-12-13T22:15:05.764Z,83.83
2022-12-13T22:17:36.455Z,83.99
2022-12-13T22:20:08.018Z,83.88
2022-12-13T22:22:36.579Z,83.81
2022-12-13T22:25:06.187Z,83.83
2022-12-13T22:27:34.881Z,84.01
2022-12-13T22:30:03.153Z,84.00
2022-12-13T22:32:32.784Z,84.04
2022-12-13T22:35:02.462Z,83.90
2022-12-13T22:37:30.832Z,83.96
2022-12-13T22:39:59.165Z,83.97
2022-12-13T22:42:27.821Z,84.23
2022-12-13T22:44:56.219Z,84.61
2022-12-13T22:47:24.638Z,84.49
2022-12-13T22:49:52.952Z,86.02
2022-12-13T22:52:22.993Z,85.54
2022-12-13T22:54:51.286Z,84.39
2022-12-13T22:57:19.644Z,84.07
2022-12-13T22:59:48.009Z,84.18
2022-12-13T23:02:16.727Z,83.51
2022-12-13T23:04:45.200Z,83.49
2022-12-13T23:07:13.584Z,83.31
2022-12-13T23:09:43.306Z,83.55
2022-12-13T23:12:30.649Z,83.58
2022-12-13T23:14:59.068Z,83.19
2022-12-13T23:17:27.488Z,82.91
2022-12-13T23:19:55.915Z,82.96
2022-12-13T23:22:26.698Z,82.83
2022-12-13T23:24:56.474Z,82.96
2022-12-13T23:27:25.570Z,82.34
2022-12-13T23:29:53.933Z,82.13
2022-12-13T23:32:22.260Z,82.20
2022-12-13T23:34:50.586Z,82.20
2022-12-13T23:37:20.149Z,82.37
2022-12-13T23:39:48.504Z,82.41
2022-12-13T23:42:18.266Z,82.28
2022-12-13T23:44:46.657Z,82.36
2022-12-13T23:47:14.971Z,82.01
2022-12-13T23:49:43.314Z,82.06
2022-12-13T23:52:11.737Z,82.26
2022-12-13T23:54:40.030Z,82.36
2022-12-13T23:57:08.316Z,82.47
2022-12-13T23:59:38.064Z,82.28
